Veneta, Oregon
Current Conditions -  °F | °C
As of 12:54 PM on Friday 28 Nov 2014 (Local Time) from KEUG Reporting Station
Light Rain Light Rain  
Wind Chill: 54°   Ceiling: 2900
Heat Index: 54°   Visibility: 3mi
Dew Point: 50°   Wind: 16mph
Humidity: 86%   Direction: 200°SSW
Pressure: 29.62"   Gusts: 26mph
Location:  44.05°N, 123.35°W
Report Text: KEUG 282054Z 20014G23KT 3SM -RA BR FEW020 BKN029 OVC050 12/10 A2962 RMK AO2 SLP030 P0005 60014 T01220100 56022 $
Loading
Personal Weather Stations






























Interactive Weather Map New forecast layout! Learn more

10-Day Weather Forecast

Advertisements
Track Severe Weather on mobile